Seymour, TN

6:17 PM EST on December 17, 2014 (GMT -0500)
Shenandoah | Change Station
CLOSE
Current Station
Personal Weather Station
Location: Seymour, TN
Elevation: 1076 ft
Nearby Weather Stations

Elev 1076 ft 35.86 °N, 83.77 °W | Updated 6 seconds ago

Mostly Cloudy
Mostly Cloudy
41.9 °F
Feels Like 42 °F
N
1.6
Wind Variable Wind from North
Gusts 1.6 mph

Today
High -- | Low -- °F
--% Chance of Precip.
Yesterday
High -- | Low -- °F
Precip. -- in
7:39 AM 5:23 PM
Waning Crescent, 19% visible
Pressure 30.19 in
Visibility 10.0 miles
Clouds Few 2800 ft
Overcast 20000 ft
Windchill 42 °F
Dew Point 38 °F
Humidity 87%
Rainfall 0.00 in
Snow Depth Not available.
UV 0 out of 12
Pollen .40 out of 12
Air Quality Not available.
Flu Activity Not available.
METAR KTYS 172253Z 23005KT 10SM FEW028 OVC200 06/01 A3019 RMK AO2 SLP224 T00560011

More Conditions Fewer Conditions

Pressure 30.19 in
Visibility 10.0 miles
Clouds Few 2800 ft
Overcast 20000 ft
Windchill 42 °F
Dew Point 38 °F
Humidity 87%
Rainfall 0.00 in
Snow Depth Not available.
UV 0 out of 12
Pollen .40 out of 12
Air Quality Not available.
Flu Activity Not available.
METAR KTYS 172253Z 23005KT 10SM FEW028 OVC200 06/01 A3019 RMK AO2 SLP224 T00560011

More Conditions Fewer Conditions

10-Day Weather Forecast

Almanac

Astronomy

Dec. 17, 2014 Rise Set
Actual Time
Civil Twilight
Nautical Twilight
Astronomical Twilight
Moon
Length of Visible Light
Length of Day
Tomorrow will be .
, % of the Moon is Illuminated

Today's Extremes

State Highs State Lows

Community

WunderPhotos

Upload Photos

1,778,822 photos uploaded!

WunderBlogs® & News

Nearby

Air Quality

  Air Quality AQ Index Pollutant
Not available.

Snow Depth

Station Depth Elevation

Earthquake Activity

City Distance Mag. Time & Date
Minimum magnitude displayed is 2.5.

Coastal Water Temperatures

Place Temperature

Nearby Weather Stations